createdAt,value
2023-03-02T00:02:22.562Z,8.80
2023-03-02T00:05:24.793Z,8.80
2023-03-02T00:08:28.748Z,8.80
2023-03-02T00:11:32.759Z,8.70
2023-03-02T00:14:35.049Z,8.70
2023-03-02T00:17:37.498Z,8.70
2023-03-02T00:20:39.711Z,8.70
2023-03-02T00:23:43.885Z,8.70
2023-03-02T00:26:46.181Z,8.60
2023-03-02T00:29:48.361Z,8.60
2023-03-02T00:32:50.666Z,8.60
2023-03-02T00:35:52.766Z,8.60
2023-03-02T00:38:57.608Z,8.60
2023-03-02T00:41:59.824Z,8.60
2023-03-02T00:45:02.157Z,8.50
2023-03-02T00:48:04.551Z,8.50
2023-03-02T00:51:10.555Z,8.50
2023-03-02T00:54:12.902Z,8.50
2023-03-02T00:57:15.029Z,8.40
2023-03-02T01:00:17.581Z,8.40
2023-03-02T01:03:19.965Z,8.50
2023-03-02T01:06:22.173Z,8.30
2023-03-02T01:09:25.451Z,8.30
2023-03-02T01:12:27.728Z,8.30
2023-03-02T01:15:29.905Z,8.30
2023-03-02T01:18:35.067Z,8.20
2023-03-02T01:21:37.413Z,8.30
2023-03-02T01:24:39.643Z,8.20
2023-03-02T01:27:41.857Z,8.20
2023-03-02T01:30:44.047Z,8.20
2023-03-02T01:33:46.281Z,8.20
2023-03-02T01:36:49.212Z,8.20
2023-03-02T01:39:51.544Z,8.10
2023-03-02T01:42:58.392Z,8.10
2023-03-02T01:46:28.536Z,8.00
2023-03-02T01:49:36.741Z,8.00
2023-03-02T01:52:39.479Z,7.90
2023-03-02T01:55:44.339Z,7.90
2023-03-02T01:58:51.134Z,7.90
2023-03-02T02:01:55.836Z,7.90
2023-03-02T02:04:58.516Z,7.90
2023-03-02T02:08:00.979Z,7.90
2023-03-02T02:11:03.222Z,7.80
2023-03-02T02:14:06.736Z,7.80
2023-03-02T02:17:09.336Z,7.80
2023-03-02T02:20:20.792Z,7.70
2023-03-02T02:23:36.487Z,7.70
2023-03-02T02:26:51.812Z,7.60
2023-03-02T02:29:54.578Z,7.60
2023-03-02T02:32:58.645Z,7.60
2023-03-02T02:36:07.358Z,7.50
2023-03-02T02:39:20.802Z,7.50
2023-03-02T02:42:33.600Z,7.50
2023-03-02T02:45:36.498Z,7.50
2023-03-02T02:48:40.138Z,7.50
2023-03-02T02:51:42.234Z,7.40
2023-03-02T02:54:50.123Z,7.30
2023-03-02T02:57:59.678Z,7.30
2023-03-02T03:01:03.702Z,7.20
2023-03-02T03:04:07.386Z,7.20
2023-03-02T03:07:13.770Z,7.20
2023-03-02T03:10:27.236Z,7.20
2023-03-02T03:13:29.388Z,7.20
2023-03-02T03:16:34.032Z,7.20
2023-03-02T03:19:36.545Z,7.10
2023-03-02T03:22:39.313Z,7.00
2023-03-02T03:25:42.455Z,7.00
2023-03-02T03:28:44.644Z,7.00
2023-03-02T03:31:46.924Z,7.00
2023-03-02T03:34:49.485Z,7.00
2023-03-02T03:37:52.674Z,6.90
2023-03-02T03:40:54.892Z,6.90
2023-03-02T03:43:57.164Z,6.90
2023-03-02T03:46:59.958Z,6.90
2023-03-02T03:50:02.297Z,6.90
2023-03-02T03:53:04.476Z,6.90
2023-03-02T03:56:07.507Z,6.80
2023-03-02T03:59:13.922Z,6.80
2023-03-02T04:02:16.085Z,6.80
2023-03-02T04:05:18.775Z,6.80
2023-03-02T04:08:22.637Z,6.80
2023-03-02T04:11:24.700Z,6.80
2023-03-02T04:14:30.600Z,6.80
2023-03-02T04:17:32.735Z,6.70
2023-03-02T04:20:34.931Z,6.70
2023-03-02T04:23:37.037Z,6.70
2023-03-02T04:26:41.421Z,6.70
2023-03-02T04:29:46.651Z,6.70
2023-03-02T04:32:48.972Z,6.60
2023-03-02T04:35:51.579Z,6.50
2023-03-02T04:38:53.900Z,6.60
2023-03-02T04:41:56.481Z,6.50
2023-03-02T04:44:58.680Z,6.60
2023-03-02T04:48:00.855Z,6.60
2023-03-02T04:51:03.139Z,6.60
2023-03-02T04:54:09.006Z,6.50
2023-03-02T04:57:11.129Z,6.50
2023-03-02T05:00:14.983Z,6.50
2023-03-02T05:03:17.157Z,6.50
2023-03-02T05:06:21.902Z,6.40
2023-03-02T05:09:28.857Z,6.30
2023-03-02T05:12:30.966Z,6.30
2023-03-02T05:15:47.826Z,6.30
2023-03-02T05:18:57.297Z,6.30
2023-03-02T05:21:59.731Z,6.30
2023-03-02T05:25:01.887Z,6.30
2023-03-02T05:28:05.594Z,6.30
2023-03-02T05:31:09.757Z,6.20
2023-03-02T05:34:14.245Z,6.20
2023-03-02T05:37:17.280Z,6.20
2023-03-02T05:40:22.302Z,6.20
2023-03-02T05:43:24.415Z,6.20
2023-03-02T05:46:27.113Z,6.10
2023-03-02T05:49:29.260Z,6.10
2023-03-02T05:52:31.363Z,6.10
2023-03-02T05:55:37.350Z,6.10
2023-03-02T05:58:39.614Z,6.00
2023-03-02T06:01:41.772Z,6.00
2023-03-02T06:04:44.002Z,6.00
2023-03-02T06:07:46.580Z,6.00
2023-03-02T06:10:50.966Z,6.00
2023-03-02T06:13:53.149Z,5.90
2023-03-02T06:16:55.401Z,6.00
2023-03-02T06:19:58.540Z,6.00
2023-03-02T06:23:01.680Z,6.00
2023-03-02T06:26:12.175Z,6.00
2023-03-02T06:29:14.457Z,6.00
2023-03-02T06:32:16.723Z,6.00
2023-03-02T06:35:19.299Z,6.00
2023-03-02T06:38:21.560Z,6.00
2023-03-02T06:41:23.817Z,5.90
2023-03-02T06:44:26.152Z,5.90
2023-03-02T06:47:28.373Z,5.90
2023-03-02T06:50:31.166Z,5.90
2023-03-02T06:53:33.491Z,5.90
2023-03-02T06:56:35.924Z,5.90
2023-03-02T06:59:38.193Z,5.90
2023-03-02T07:02:40.384Z,5.80
2023-03-02T07:05:44.516Z,5.80
2023-03-02T07:08:48.868Z,5.80
2023-03-02T07:11:51.352Z,5.90
2023-03-02T07:14:53.493Z,5.90
2023-03-02T07:17:55.671Z,5.90
2023-03-02T07:20:58.743Z,6.00
2023-03-02T07:24:00.966Z,6.00
2023-03-02T07:27:03.615Z,6.30
2023-03-02T07:30:07.148Z,7.00
2023-03-02T07:33:10.271Z,7.80
2023-03-02T07:36:12.561Z,8.70
2023-03-02T07:39:14.687Z,9.40
2023-03-02T07:42:17.714Z,10.20
2023-03-02T07:45:22.104Z,11.00
2023-03-02T07:48:24.476Z,11.70
2023-03-02T07:51:27.111Z,12.30
2023-03-02T07:54:30.647Z,13.00
2023-03-02T07:57:32.854Z,13.30
2023-03-02T08:00:36.880Z,13.80
2023-03-02T08:03:39.108Z,14.30
2023-03-02T08:06:42.596Z,15.10
2023-03-02T08:09:44.857Z,15.50
2023-03-02T08:12:46.997Z,15.70
2023-03-02T08:15:49.354Z,15.80
2023-03-02T08:18:52.485Z,16.20
2023-03-02T08:21:54.756Z,17.00
2023-03-02T08:24:57.648Z,17.40
2023-03-02T08:27:59.812Z,17.80
2023-03-02T08:31:03.197Z,18.90
2023-03-02T08:34:06.003Z,19.90
2023-03-02T08:37:08.243Z,19.80
2023-03-02T08:40:11.138Z,20.50
2023-03-02T08:43:13.331Z,20.90
2023-03-02T08:46:18.454Z,20.00
2023-03-02T08:49:21.618Z,19.80
2023-03-02T08:52:24.764Z,20.70
2023-03-02T08:55:27.057Z,20.90
2023-03-02T08:58:29.875Z,21.20
2023-03-02T09:01:34.786Z,22.50
2023-03-02T09:04:37.291Z,23.70
2023-03-02T09:07:39.739Z,24.40
2023-03-02T09:10:41.954Z,25.30
2023-03-02T09:13:45.250Z,25.90
2023-03-02T09:16:47.744Z,26.40
2023-03-02T09:19:50.134Z,26.70
2023-03-02T09:22:52.312Z,26.80
2023-03-02T09:25:55.211Z,27.30
2023-03-02T09:28:57.678Z,27.50
2023-03-02T09:32:01.052Z,25.30
2023-03-02T09:35:03.817Z,26.30
2023-03-02T09:38:06.054Z,27.30
2023-03-02T09:41:18.422Z,27.50
2023-03-02T09:44:44.791Z,28.60
2023-03-02T09:48:11.476Z,27.70
2023-03-02T09:51:33.838Z,28.10
2023-03-02T09:54:38.137Z,28.40
2023-03-02T09:57:40.910Z,28.40
2023-03-02T10:00:45.158Z,28.70
2023-03-02T10:04:00.178Z,27.90
2023-03-02T10:07:10.713Z,27.80
2023-03-02T10:10:40.904Z,26.90
2023-03-02T10:14:21.843Z,26.70
2023-03-02T10:17:44.404Z,27.80
2023-03-02T10:20:54.786Z,27.00
2023-03-02T10:24:02.581Z,27.50
2023-03-02T10:27:19.393Z,28.30
2023-03-02T10:30:21.664Z,27.90
2023-03-02T10:33:24.351Z,27.30
2023-03-02T10:36:31.790Z,27.30
2023-03-02T10:39:34.009Z,26.80
2023-03-02T10:42:40.811Z,26.70
2023-03-02T10:45:43.074Z,26.60
2023-03-02T10:48:51.097Z,26.40
2023-03-02T10:52:02.650Z,26.90
2023-03-02T10:55:15.863Z,27.90
2023-03-02T10:58:30.233Z,26.90
2023-03-02T11:01:32.691Z,26.50
2023-03-02T11:04:35.062Z,26.80
2023-03-02T11:07:37.324Z,26.50
2023-03-02T11:10:43.482Z,26.00
2023-03-02T11:13:45.758Z,25.70
2023-03-02T11:16:52.559Z,25.90
2023-03-02T11:19:55.013Z,25.80
2023-03-02T11:23:08.109Z,25.00
2023-03-02T11:26:23.808Z,24.70
2023-03-02T11:29:46.311Z,24.40
2023-03-02T11:33:02.199Z,25.10
2023-03-02T11:36:18.213Z,25.50
2023-03-02T11:39:32.266Z,25.60
2023-03-02T11:42:44.371Z,25.50
2023-03-02T11:46:00.881Z,25.20
2023-03-02T11:49:14.084Z,24.80
2023-03-02T11:52:20.882Z,23.80
2023-03-02T11:55:31.704Z,23.80
2023-03-02T11:58:34.760Z,23.00
2023-03-02T12:01:39.198Z,21.40
2023-03-02T12:04:43.587Z,20.10
2023-03-02T12:07:47.065Z,18.60
2023-03-02T12:11:16.604Z,18.00
2023-03-02T12:14:38.250Z,17.50
2023-03-02T12:17:40.517Z,16.80
2023-03-02T12:20:43.316Z,16.50
2023-03-02T12:23:52.195Z,16.30
2023-03-02T12:27:04.771Z,16.00
2023-03-02T12:30:28.397Z,15.60
2023-03-02T12:33:30.872Z,15.40
2023-03-02T12:36:42.252Z,15.00
2023-03-02T12:40:41.312Z,14.60
2023-03-02T12:44:04.769Z,14.40
2023-03-02T12:47:16.538Z,14.30
2023-03-02T12:50:25.984Z,14.10
2023-03-02T12:53:29.046Z,13.90
2023-03-02T12:56:31.364Z,13.90
2023-03-02T12:59:33.619Z,13.70
2023-03-02T13:02:37.123Z,13.60
2023-03-02T13:05:39.332Z,13.70
2023-03-02T13:08:45.649Z,13.80
2023-03-02T13:11:49.793Z,13.90
2023-03-02T13:14:55.528Z,13.80
2023-03-02T13:18:02.723Z,13.90
2023-03-02T13:21:05.834Z,13.90
2023-03-02T13:24:26.702Z,14.00
2023-03-02T13:27:30.284Z,14.00
2023-03-02T13:30:33.863Z,14.10
2023-03-02T13:33:47.681Z,14.00
2023-03-02T13:36:51.351Z,14.00
2023-03-02T13:40:02.616Z,14.10
2023-03-02T13:43:08.849Z,14.20
2023-03-02T13:46:13.963Z,14.30
2023-03-02T13:49:30.311Z,14.50
2023-03-02T13:52:35.463Z,14.50
2023-03-02T13:55:40.237Z,14.40
2023-03-02T13:58:42.605Z,14.40
2023-03-02T14:01:44.892Z,14.40
2023-03-02T14:04:47.145Z,14.40
2023-03-02T14:07:49.526Z,14.50
2023-03-02T14:10:57.234Z,14.50
2023-03-02T14:13:59.956Z,14.40
2023-03-02T14:17:02.151Z,14.30
2023-03-02T14:20:04.443Z,14.50
2023-03-02T14:23:07.983Z,14.70
2023-03-02T14:26:32.684Z,14.80
2023-03-02T14:29:35.040Z,15.00
2023-03-02T14:32:37.238Z,15.10
2023-03-02T14:35:39.499Z,15.20
2023-03-02T14:38:41.851Z,15.00
2023-03-02T14:41:53.263Z,15.00
2023-03-02T14:44:56.192Z,14.70
2023-03-02T14:47:58.346Z,14.70
2023-03-02T14:51:04.239Z,14.90
2023-03-02T14:54:09.986Z,14.90
2023-03-02T14:57:25.343Z,14.90
2023-03-02T15:00:27.924Z,14.80
2023-03-02T15:03:30.291Z,14.70
2023-03-02T15:06:37.792Z,14.80
2023-03-02T15:09:41.129Z,14.70
2023-03-02T15:12:43.821Z,14.80
2023-03-02T15:15:47.239Z,14.90
2023-03-02T15:18:50.689Z,14.80
2023-03-02T15:21:53.061Z,14.80
2023-03-02T15:24:55.689Z,14.70
2023-03-02T15:27:58.083Z,14.80
2023-03-02T15:31:08.607Z,14.90
2023-03-02T15:34:11.775Z,15.00
2023-03-02T15:37:14.367Z,15.00
2023-03-02T15:40:16.739Z,15.00
2023-03-02T15:43:19.029Z,15.00
2023-03-02T15:46:22.514Z,15.10
2023-03-02T15:49:27.771Z,15.10
2023-03-02T15:52:30.012Z,15.00
2023-03-02T15:55:32.358Z,15.00
2023-03-02T15:58:35.637Z,15.10
2023-03-02T16:01:37.846Z,15.10
2023-03-02T16:04:40.920Z,15.10
2023-03-02T16:07:43.433Z,15.00
2023-03-02T16:11:02.833Z,15.10
2023-03-02T16:14:08.467Z,15.10
2023-03-02T16:17:14.221Z,15.00
2023-03-02T16:20:16.465Z,15.00
2023-03-02T16:23:18.695Z,15.10
2023-03-02T16:26:22.446Z,15.00
2023-03-02T16:29:24.703Z,15.00
2023-03-02T16:32:27.907Z,15.10
2023-03-02T16:35:31.757Z,15.10
2023-03-02T16:38:34.393Z,15.10
2023-03-02T16:41:37.587Z,15.10
2023-03-02T16:44:39.731Z,15.00
2023-03-02T16:47:41.979Z,15.00
2023-03-02T16:50:44.617Z,14.90
2023-03-02T16:53:48.138Z,14.90
2023-03-02T16:56:50.311Z,14.90
2023-03-02T16:59:52.488Z,14.80
2023-03-02T17:02:54.697Z,14.80
2023-03-02T17:05:57.108Z,14.80
2023-03-02T17:08:59.255Z,14.80
2023-03-02T17:12:01.461Z,14.80
2023-03-02T17:15:03.936Z,14.80
2023-03-02T17:18:06.115Z,14.80
2023-03-02T17:21:08.658Z,14.70
2023-03-02T17:24:10.864Z,14.60
2023-03-02T17:27:24.554Z,14.50
2023-03-02T17:30:27.561Z,14.40
2023-03-02T17:33:30.287Z,14.40
2023-03-02T17:36:36.842Z,14.30
2023-03-02T17:39:39.174Z,14.20
2023-03-02T17:42:41.355Z,14.10
2023-03-02T17:45:43.670Z,14.00
2023-03-02T17:48:49.482Z,13.90
2023-03-02T17:51:51.624Z,13.90
2023-03-02T17:54:54.469Z,13.80
2023-03-02T17:57:56.600Z,13.70
2023-03-02T18:00:59.029Z,13.60
2023-03-02T18:04:01.317Z,13.50
2023-03-02T18:07:05.715Z,13.40
2023-03-02T18:10:08.562Z,13.30
2023-03-02T18:13:10.867Z,13.20
2023-03-02T18:16:13.121Z,13.20
2023-03-02T18:19:17.073Z,13.00
2023-03-02T18:22:22.150Z,13.00
2023-03-02T18:25:25.034Z,13.00
2023-03-02T18:28:27.336Z,13.00
2023-03-02T18:31:31.651Z,12.90
2023-03-02T18:34:34.025Z,12.80
2023-03-02T18:37:36.537Z,12.80
2023-03-02T18:40:38.806Z,12.80
2023-03-02T18:43:43.267Z,12.80
2023-03-02T18:46:45.738Z,12.60
2023-03-02T18:49:48.402Z,12.60
2023-03-02T18:52:51.403Z,12.50
2023-03-02T18:55:56.836Z,12.40
2023-03-02T18:58:59.208Z,12.30
2023-03-02T19:02:03.623Z,12.30
2023-03-02T19:05:08.727Z,12.20
2023-03-02T19:08:11.807Z,12.10
2023-03-02T19:11:15.132Z,12.10
2023-03-02T19:14:17.282Z,12.00
2023-03-02T19:17:19.594Z,12.00
2023-03-02T19:20:22.316Z,11.90
2023-03-02T19:23:24.525Z,11.90
2023-03-02T19:26:29.317Z,11.80
2023-03-02T19:29:31.453Z,11.80
2023-03-02T19:32:33.808Z,11.80
2023-03-02T19:35:37.908Z,11.70
2023-03-02T19:38:44.666Z,11.70
2023-03-02T19:41:46.923Z,11.70
2023-03-02T19:44:49.057Z,11.60
2023-03-02T19:47:51.331Z,11.60
2023-03-02T19:50:53.497Z,11.50
2023-03-02T19:53:55.908Z,11.50
2023-03-02T19:56:58.460Z,11.50
2023-03-02T20:00:00.702Z,11.50
2023-03-02T20:03:03.337Z,11.40
2023-03-02T20:06:05.722Z,11.40
2023-03-02T20:09:08.481Z,11.30
2023-03-02T20:12:12.217Z,11.30
2023-03-02T20:15:14.355Z,11.30
2023-03-02T20:18:19.142Z,11.20
2023-03-02T20:21:21.495Z,11.20
2023-03-02T20:24:23.794Z,11.30
2023-03-02T20:27:27.517Z,11.20
2023-03-02T20:30:36.727Z,11.20
2023-03-02T20:33:46.730Z,11.20
2023-03-02T20:36:50.103Z,11.10
2023-03-02T20:39:53.436Z,11.10
2023-03-02T20:42:56.754Z,11.10
2023-03-02T20:46:00.160Z,11.10
2023-03-02T20:49:02.805Z,11.10
2023-03-02T20:52:06.898Z,11.00
2023-03-02T20:55:10.358Z,11.00
2023-03-02T20:58:13.243Z,11.00
2023-03-02T21:01:17.159Z,11.00
2023-03-02T21:04:19.915Z,11.00
2023-03-02T21:07:22.233Z,10.90
2023-03-02T21:10:31.858Z,10.90
2023-03-02T21:13:34.128Z,10.90
2023-03-02T21:16:39.363Z,10.90
2023-03-02T21:19:41.754Z,10.90
2023-03-02T21:22:46.500Z,10.90
2023-03-02T21:25:48.743Z,10.80
2023-03-02T21:28:50.878Z,10.80
2023-03-02T21:31:53.964Z,10.80
2023-03-02T21:34:56.115Z,10.80
2023-03-02T21:38:04.921Z,10.80
2023-03-02T21:41:08.376Z,10.80
2023-03-02T21:44:10.609Z,10.80
2023-03-02T21:47:12.754Z,10.70
2023-03-02T21:50:27.181Z,10.70
2023-03-02T21:53:32.054Z,10.70
2023-03-02T21:56:34.088Z,10.60
2023-03-02T21:59:37.478Z,10.60
2023-03-02T22:02:44.542Z,10.60
2023-03-02T22:05:46.872Z,10.50
2023-03-02T22:08:49.869Z,10.50
2023-03-02T22:11:53.016Z,10.50
2023-03-02T22:14:55.322Z,10.50
2023-03-02T22:17:59.881Z,10.50
2023-03-02T22:21:43.161Z,10.50
2023-03-02T22:24:54.841Z,10.50
2023-03-02T22:27:57.238Z,10.40
2023-03-02T22:31:01.331Z,10.40
2023-03-02T22:34:10.091Z,10.40
2023-03-02T22:37:20.540Z,10.30
2023-03-02T22:40:35.093Z,10.30
2023-03-02T22:43:37.405Z,10.30
2023-03-02T22:46:40.282Z,10.30
2023-03-02T22:49:42.695Z,10.20
2023-03-02T22:52:45.527Z,10.20
2023-03-02T22:55:48.282Z,10.20
2023-03-02T22:58:51.656Z,10.20
2023-03-02T23:02:00.120Z,10.10
2023-03-02T23:05:02.618Z,10.10
2023-03-02T23:08:36.249Z,10.10
2023-03-02T23:11:41.383Z,10.10
2023-03-02T23:14:51.384Z,10.00
2023-03-02T23:17:55.902Z,10.00
2023-03-02T23:20:59.621Z,10.00
2023-03-02T23:24:02.722Z,10.00
2023-03-02T23:27:04.878Z,10.00
2023-03-02T23:30:09.767Z,10.00
2023-03-02T23:33:11.807Z,10.00
2023-03-02T23:36:14.683Z,10.00
2023-03-02T23:39:19.397Z,9.90
2023-03-02T23:42:21.580Z,9.90
2023-03-02T23:45:23.730Z,9.90
2023-03-02T23:48:25.942Z,9.80
2023-03-02T23:51:28.325Z,9.80
2023-03-02T23:54:30.543Z,9.80
2023-03-02T23:57:32.832Z,9.70
